sensor_id;sensor_type;location;lat;lon;timestamp;P1;durP1;ratioP1;P2;durP2;ratioP2
38613;SDS011;24369;49.480;8.488;2022-07-04T00:00:44;189.52;;;173.07;;
38613;SDS011;24369;49.480;8.488;2022-07-04T00:03:09;186.65;;;170.85;;
38613;SDS011;24369;49.480;8.488;2022-07-04T00:05:34;187.93;;;171.57;;
38613;SDS011;24369;49.480;8.488;2022-07-04T00:08:03;216.52;;;197.65;;
38613;SDS011;24369;49.480;8.488;2022-07-04T00:10:28;187.40;;;171.10;;
38613;SDS011;24369;49.480;8.488;2022-07-04T00:12:54;185.02;;;169.05;;
38613;SDS011;24369;49.480;8.488;2022-07-04T00:15:20;198.45;;;180.43;;
38613;SDS011;24369;49.480;8.488;2022-07-04T00:17:45;199.25;;;180.95;;
38613;SDS011;24369;49.480;8.488;2022-07-04T00:20:11;181.40;;;165.32;;
38613;SDS011;24369;49.480;8.488;2022-07-04T00:22:37;184.27;;;168.68;;
38613;SDS011;24369;49.480;8.488;2022-07-04T00:25:03;184.30;;;168.50;;
38613;SDS011;24369;49.480;8.488;2022-07-04T00:27:29;187.70;;;171.52;;
38613;SDS011;24369;49.480;8.488;2022-07-04T00:29:54;182.52;;;166.07;;
38613;SDS011;24369;49.480;8.488;2022-07-04T00:32:20;185.25;;;168.80;;
38613;SDS011;24369;49.480;8.488;2022-07-04T00:34:45;182.25;;;166.13;;
38613;SDS011;24369;49.480;8.488;2022-07-04T00:37:11;182.30;;;166.32;;
38613;SDS011;24369;49.480;8.488;2022-07-04T00:39:37;174.82;;;159.25;;
38613;SDS011;24369;49.480;8.488;2022-07-04T00:42:02;175.88;;;160.65;;
38613;SDS011;24369;49.480;8.488;2022-07-04T00:44:28;193.20;;;176.15;;
38613;SDS011;24369;49.480;8.488;2022-07-04T00:46:55;190.02;;;173.77;;
38613;SDS011;24369;49.480;8.488;2022-07-04T00:49:21;189.30;;;172.73;;
38613;SDS011;24369;49.480;8.488;2022-07-04T00:51:46;171.85;;;156.07;;
38613;SDS011;24369;49.480;8.488;2022-07-04T00:54:13;173.68;;;158.23;;
38613;SDS011;24369;49.480;8.488;2022-07-04T00:56:41;184.82;;;168.32;;
38613;SDS011;24369;49.480;8.488;2022-07-04T00:59:08;183.80;;;167.68;;
38613;SDS011;24369;49.480;8.488;2022-07-04T01:01:34;206.45;;;188.77;;
38613;SDS011;24369;49.480;8.488;2022-07-04T01:04:01;171.40;;;155.65;;
38613;SDS011;24369;49.480;8.488;2022-07-04T01:06:27;181.43;;;165.18;;
38613;SDS011;24369;49.480;8.488;2022-07-04T01:08:53;189.38;;;173.15;;
38613;SDS011;24369;49.480;8.488;2022-07-04T01:11:19;173.68;;;157.73;;
38613;SDS011;24369;49.480;8.488;2022-07-04T01:13:45;179.80;;;163.60;;
38613;SDS011;24369;49.480;8.488;2022-07-04T01:16:10;175.20;;;159.45;;
38613;SDS011;24369;49.480;8.488;2022-07-04T01:18:37;171.60;;;156.23;;
38613;SDS011;24369;49.480;8.488;2022-07-04T01:21:02;173.27;;;157.68;;
38613;SDS011;24369;49.480;8.488;2022-07-04T01:23:29;179.82;;;163.38;;
38613;SDS011;24369;49.480;8.488;2022-07-04T01:25:55;181.00;;;164.73;;
38613;SDS011;24369;49.480;8.488;2022-07-04T01:28:21;190.25;;;172.30;;
38613;SDS011;24369;49.480;8.488;2022-07-04T01:30:47;175.40;;;159.52;;
38613;SDS011;24369;49.480;8.488;2022-07-04T01:33:13;166.13;;;150.77;;
38613;SDS011;24369;49.480;8.488;2022-07-04T01:35:39;172.68;;;156.82;;
38613;SDS011;24369;49.480;8.488;2022-07-04T01:38:05;170.00;;;154.02;;
38613;SDS011;24369;49.480;8.488;2022-07-04T01:40:30;179.88;;;162.90;;
38613;SDS011;24369;49.480;8.488;2022-07-04T01:42:56;187.70;;;170.25;;
38613;SDS011;24369;49.480;8.488;2022-07-04T01:45:23;161.07;;;144.88;;
38613;SDS011;24369;49.480;8.488;2022-07-04T01:47:49;169.20;;;152.77;;
38613;SDS011;24369;49.480;8.488;2022-07-04T01:50:14;198.32;;;181.57;;
38613;SDS011;24369;49.480;8.488;2022-07-04T01:52:40;171.27;;;155.18;;
38613;SDS011;24369;49.480;8.488;2022-07-04T01:55:06;199.15;;;180.82;;
38613;SDS011;24369;49.480;8.488;2022-07-04T01:57:33;190.88;;;172.18;;
38613;SDS011;24369;49.480;8.488;2022-07-04T01:59:58;169.73;;;153.68;;
38613;SDS011;24369;49.480;8.488;2022-07-04T02:05:07;169.63;;;153.10;;
38613;SDS011;24369;49.480;8.488;2022-07-04T02:07:33;187.75;;;170.02;;
38613;SDS011;24369;49.480;8.488;2022-07-04T02:09:58;183.85;;;166.45;;
38613;SDS011;24369;49.480;8.488;2022-07-04T02:12:24;173.20;;;156.63;;
38613;SDS011;24369;49.480;8.488;2022-07-04T02:17:33;180.00;;;162.02;;
38613;SDS011;24369;49.480;8.488;2022-07-04T02:19:59;182.10;;;165.23;;
38613;SDS011;24369;49.480;8.488;2022-07-04T02:22:24;172.40;;;155.77;;
38613;SDS011;24369;49.480;8.488;2022-07-04T02:24:50;178.27;;;161.55;;
38613;SDS011;24369;49.480;8.488;2022-07-04T02:27:15;192.98;;;174.55;;
38613;SDS011;24369;49.480;8.488;2022-07-04T02:29:41;164.50;;;149.02;;
38613;SDS011;24369;49.480;8.488;2022-07-04T02:32:06;182.30;;;165.13;;
38613;SDS011;24369;49.480;8.488;2022-07-04T02:34:32;193.18;;;176.13;;
38613;SDS011;24369;49.480;8.488;2022-07-04T02:36:57;205.00;;;185.98;;
38613;SDS011;24369;49.480;8.488;2022-07-04T02:39:23;191.93;;;174.35;;
38613;SDS011;24369;49.480;8.488;2022-07-04T02:41:49;172.60;;;155.90;;
38613;SDS011;24369;49.480;8.488;2022-07-04T02:44:14;178.73;;;162.85;;
38613;SDS011;24369;49.480;8.488;2022-07-04T02:46:40;190.73;;;172.82;;
38613;SDS011;24369;49.480;8.488;2022-07-04T02:49:05;178.43;;;162.25;;
38613;SDS011;24369;49.480;8.488;2022-07-04T02:51:30;180.07;;;163.23;;
38613;SDS011;24369;49.480;8.488;2022-07-04T02:53:56;166.40;;;150.30;;
38613;SDS011;24369;49.480;8.488;2022-07-04T02:56:23;170.55;;;154.27;;
38613;SDS011;24369;49.480;8.488;2022-07-04T02:58:48;213.38;;;193.43;;
38613;SDS011;24369;49.480;8.488;2022-07-04T03:01:14;175.20;;;157.88;;
38613;SDS011;24369;49.480;8.488;2022-07-04T03:03:39;160.13;;;145.30;;
38613;SDS011;24369;49.480;8.488;2022-07-04T03:06:08;171.15;;;154.55;;
38613;SDS011;24369;49.480;8.488;2022-07-04T03:08:34;155.52;;;139.43;;
38613;SDS011;24369;49.480;8.488;2022-07-04T03:11:00;165.30;;;149.27;;
38613;SDS011;24369;49.480;8.488;2022-07-04T03:13:26;156.98;;;141.23;;
38613;SDS011;24369;49.480;8.488;2022-07-04T03:15:51;166.07;;;149.35;;
38613;SDS011;24369;49.480;8.488;2022-07-04T03:18:17;153.52;;;137.93;;
38613;SDS011;24369;49.480;8.488;2022-07-04T03:20:43;162.88;;;145.32;;
38613;SDS011;24369;49.480;8.488;2022-07-04T03:23:08;152.35;;;136.23;;
38613;SDS011;24369;49.480;8.488;2022-07-04T03:25:34;157.05;;;140.10;;
38613;SDS011;24369;49.480;8.488;2022-07-04T03:27:59;153.05;;;136.73;;
38613;SDS011;24369;49.480;8.488;2022-07-04T03:30:25;163.32;;;145.90;;
38613;SDS011;24369;49.480;8.488;2022-07-04T03:32:50;155.20;;;138.77;;
38613;SDS011;24369;49.480;8.488;2022-07-04T03:35:16;156.70;;;140.82;;
38613;SDS011;24369;49.480;8.488;2022-07-04T03:37:41;167.73;;;149.98;;
38613;SDS011;24369;49.480;8.488;2022-07-04T03:40:07;153.32;;;137.63;;
38613;SDS011;24369;49.480;8.488;2022-07-04T03:42:33;173.43;;;154.93;;
38613;SDS011;24369;49.480;8.488;2022-07-04T03:44:58;195.63;;;174.40;;
38613;SDS011;24369;49.480;8.488;2022-07-04T03:47:23;157.50;;;141.15;;
38613;SDS011;24369;49.480;8.488;2022-07-04T03:49:49;159.55;;;143.70;;
38613;SDS011;24369;49.480;8.488;2022-07-04T03:52:14;158.90;;;142.98;;
38613;SDS011;24369;49.480;8.488;2022-07-04T03:54:39;173.55;;;154.95;;
38613;SDS011;24369;49.480;8.488;2022-07-04T03:57:05;187.20;;;169.07;;
38613;SDS011;24369;49.480;8.488;2022-07-04T03:59:30;171.45;;;153.80;;
38613;SDS011;24369;49.480;8.488;2022-07-04T04:01:56;183.93;;;166.88;;
38613;SDS011;24369;49.480;8.488;2022-07-04T04:04:21;167.60;;;150.43;;
38613;SDS011;24369;49.480;8.488;2022-07-04T04:07:05;188.60;;;168.27;;
38613;SDS011;24369;49.480;8.488;2022-07-04T04:09:30;172.10;;;155.43;;
38613;SDS011;24369;49.480;8.488;2022-07-04T04:11:56;195.93;;;177.68;;
38613;SDS011;24369;49.480;8.488;2022-07-04T04:14:21;196.88;;;179.10;;
38613;SDS011;24369;49.480;8.488;2022-07-04T04:16:46;177.93;;;160.50;;
38613;SDS011;24369;49.480;8.488;2022-07-04T04:19:12;191.05;;;173.10;;
38613;SDS011;24369;49.480;8.488;2022-07-04T04:21:38;182.27;;;165.40;;
38613;SDS011;24369;49.480;8.488;2022-07-04T04:24:03;171.85;;;154.55;;
38613;SDS011;24369;49.480;8.488;2022-07-04T04:26:29;179.48;;;161.57;;
38613;SDS011;24369;49.480;8.488;2022-07-04T04:28:55;174.57;;;157.27;;
38613;SDS011;24369;49.480;8.488;2022-07-04T04:31:20;169.35;;;152.70;;
38613;SDS011;24369;49.480;8.488;2022-07-04T04:33:46;195.77;;;177.50;;
38613;SDS011;24369;49.480;8.488;2022-07-04T04:36:12;170.35;;;153.60;;
38613;SDS011;24369;49.480;8.488;2022-07-04T04:38:37;220.10;;;198.48;;
38613;SDS011;24369;49.480;8.488;2022-07-04T04:41:02;189.55;;;170.40;;
38613;SDS011;24369;49.480;8.488;2022-07-04T04:43:28;168.80;;;152.07;;
38613;SDS011;24369;49.480;8.488;2022-07-04T04:45:53;168.13;;;151.20;;
38613;SDS011;24369;49.480;8.488;2022-07-04T04:48:19;170.35;;;153.48;;
38613;SDS011;24369;49.480;8.488;2022-07-04T04:50:44;162.13;;;146.20;;
38613;SDS011;24369;49.480;8.488;2022-07-04T04:53:11;173.75;;;156.25;;
38613;SDS011;24369;49.480;8.488;2022-07-04T04:55:36;168.48;;;151.10;;
38613;SDS011;24369;49.480;8.488;2022-07-04T04:58:01;189.68;;;170.75;;
38613;SDS011;24369;49.480;8.488;2022-07-04T05:00:27;169.07;;;151.95;;
38613;SDS011;24369;49.480;8.488;2022-07-04T05:02:52;184.52;;;167.35;;
38613;SDS011;24369;49.480;8.488;2022-07-04T05:05:18;159.80;;;144.45;;
38613;SDS011;24369;49.480;8.488;2022-07-04T05:07:43;218.73;;;199.02;;
38613;SDS011;24369;49.480;8.488;2022-07-04T05:10:08;209.63;;;191.23;;
38613;SDS011;24369;49.480;8.488;2022-07-04T05:12:34;187.10;;;169.43;;
38613;SDS011;24369;49.480;8.488;2022-07-04T05:15:00;179.93;;;162.63;;
38613;SDS011;24369;49.480;8.488;2022-07-04T05:17:25;202.75;;;184.38;;
38613;SDS011;24369;49.480;8.488;2022-07-04T05:19:50;201.63;;;183.45;;
38613;SDS011;24369;49.480;8.488;2022-07-04T05:22:16;200.77;;;183.25;;
38613;SDS011;24369;49.480;8.488;2022-07-04T05:24:41;188.35;;;169.93;;
38613;SDS011;24369;49.480;8.488;2022-07-04T05:27:07;170.43;;;153.63;;
38613;SDS011;24369;49.480;8.488;2022-07-04T05:29:33;193.25;;;174.85;;
38613;SDS011;24369;49.480;8.488;2022-07-04T05:31:58;193.35;;;175.35;;
38613;SDS011;24369;49.480;8.488;2022-07-04T05:34:24;195.43;;;176.70;;
38613;SDS011;24369;49.480;8.488;2022-07-04T05:36:49;183.95;;;166.70;;
38613;SDS011;24369;49.480;8.488;2022-07-04T05:39:15;176.70;;;159.73;;
38613;SDS011;24369;49.480;8.488;2022-07-04T05:41:40;190.07;;;173.05;;
38613;SDS011;24369;49.480;8.488;2022-07-04T05:44:06;192.52;;;174.77;;
38613;SDS011;24369;49.480;8.488;2022-07-04T05:46:31;195.52;;;177.13;;
38613;SDS011;24369;49.480;8.488;2022-07-04T05:48:56;205.77;;;187.70;;
38613;SDS011;24369;49.480;8.488;2022-07-04T05:51:22;205.85;;;187.35;;
38613;SDS011;24369;49.480;8.488;2022-07-04T05:53:47;188.20;;;171.13;;
38613;SDS011;24369;49.480;8.488;2022-07-04T05:56:13;203.52;;;185.48;;
38613;SDS011;24369;49.480;8.488;2022-07-04T05:58:38;197.20;;;178.98;;
38613;SDS011;24369;49.480;8.488;2022-07-04T06:01:05;201.70;;;183.45;;
38613;SDS011;24369;49.480;8.488;2022-07-04T06:03:30;216.40;;;196.45;;
38613;SDS011;24369;49.480;8.488;2022-07-04T06:05:56;203.75;;;185.65;;
38613;SDS011;24369;49.480;8.488;2022-07-04T06:08:22;220.25;;;201.40;;
38613;SDS011;24369;49.480;8.488;2022-07-04T06:10:48;205.35;;;186.40;;
38613;SDS011;24369;49.480;8.488;2022-07-04T06:13:13;213.00;;;193.63;;
38613;SDS011;24369;49.480;8.488;2022-07-04T06:15:39;208.50;;;190.95;;
38613;SDS011;24369;49.480;8.488;2022-07-04T06:18:04;220.82;;;201.98;;
38613;SDS011;24369;49.480;8.488;2022-07-04T06:20:29;224.07;;;203.95;;
38613;SDS011;24369;49.480;8.488;2022-07-04T06:22:55;205.88;;;188.65;;
38613;SDS011;24369;49.480;8.488;2022-07-04T06:25:21;225.82;;;207.13;;
38613;SDS011;24369;49.480;8.488;2022-07-04T06:27:47;262.17;;;241.82;;
38613;SDS011;24369;49.480;8.488;2022-07-04T06:30:15;258.65;;;238.57;;
38613;SDS011;24369;49.480;8.488;2022-07-04T06:32:44;249.95;;;231.27;;
38613;SDS011;24369;49.480;8.488;2022-07-04T06:35:11;215.55;;;198.00;;
38613;SDS011;24369;49.480;8.488;2022-07-04T06:37:56;223.77;;;205.63;;
38613;SDS011;24369;49.480;8.488;2022-07-04T06:40:22;231.48;;;213.25;;
38613;SDS011;24369;49.480;8.488;2022-07-04T06:42:48;236.35;;;216.77;;
38613;SDS011;24369;49.480;8.488;2022-07-04T06:45:14;225.90;;;207.57;;
38613;SDS011;24369;49.480;8.488;2022-07-04T06:47:39;240.88;;;221.70;;
38613;SDS011;24369;49.480;8.488;2022-07-04T06:50:05;240.80;;;221.80;;
38613;SDS011;24369;49.480;8.488;2022-07-04T06:52:31;258.85;;;237.32;;
38613;SDS011;24369;49.480;8.488;2022-07-04T06:54:56;235.05;;;215.68;;
38613;SDS011;24369;49.480;8.488;2022-07-04T06:57:22;233.77;;;215.65;;
38613;SDS011;24369;49.480;8.488;2022-07-04T06:59:47;222.38;;;205.13;;
38613;SDS011;24369;49.480;8.488;2022-07-04T07:02:13;222.70;;;205.30;;
38613;SDS011;24369;49.480;8.488;2022-07-04T07:04:41;229.82;;;212.63;;
38613;SDS011;24369;49.480;8.488;2022-07-04T07:07:08;237.35;;;219.20;;
38613;SDS011;24369;49.480;8.488;2022-07-04T07:09:33;227.43;;;209.60;;
38613;SDS011;24369;49.480;8.488;2022-07-04T07:12:00;222.90;;;205.93;;
38613;SDS011;24369;49.480;8.488;2022-07-04T07:14:25;240.80;;;222.23;;
38613;SDS011;24369;49.480;8.488;2022-07-04T07:16:51;255.73;;;235.90;;
38613;SDS011;24369;49.480;8.488;2022-07-04T07:19:16;235.93;;;217.80;;
38613;SDS011;24369;49.480;8.488;2022-07-04T07:21:42;236.25;;;218.43;;
38613;SDS011;24369;49.480;8.488;2022-07-04T07:24:07;241.90;;;223.70;;
38613;SDS011;24369;49.480;8.488;2022-07-04T07:26:33;228.02;;;210.98;;
38613;SDS011;24369;49.480;8.488;2022-07-04T07:28:58;262.10;;;243.05;;
38613;SDS011;24369;49.480;8.488;2022-07-04T07:31:23;250.45;;;232.23;;
38613;SDS011;24369;49.480;8.488;2022-07-04T07:33:49;255.35;;;236.95;;
38613;SDS011;24369;49.480;8.488;2022-07-04T07:36:14;258.38;;;239.18;;
38613;SDS011;24369;49.480;8.488;2022-07-04T07:38:39;247.70;;;228.85;;
38613;SDS011;24369;49.480;8.488;2022-07-04T07:41:11;240.57;;;222.60;;
38613;SDS011;24369;49.480;8.488;2022-07-04T07:43:37;278.08;;;258.10;;
38613;SDS011;24369;49.480;8.488;2022-07-04T07:46:05;247.95;;;229.18;;
38613;SDS011;24369;49.480;8.488;2022-07-04T07:48:32;257.77;;;238.80;;
38613;SDS011;24369;49.480;8.488;2022-07-04T07:50:57;236.27;;;218.85;;
38613;SDS011;24369;49.480;8.488;2022-07-04T07:53:23;245.27;;;227.20;;
38613;SDS011;24369;49.480;8.488;2022-07-04T07:55:49;255.73;;;237.30;;
38613;SDS011;24369;49.480;8.488;2022-07-04T07:58:14;260.98;;;242.35;;
38613;SDS011;24369;49.480;8.488;2022-07-04T08:00:40;279.67;;;259.85;;
38613;SDS011;24369;49.480;8.488;2022-07-04T08:03:06;248.48;;;230.13;;
38613;SDS011;24369;49.480;8.488;2022-07-04T08:08:15;238.63;;;220.48;;
38613;SDS011;24369;49.480;8.488;2022-07-04T08:10:40;248.50;;;231.27;;
38613;SDS011;24369;49.480;8.488;2022-07-04T08:13:06;267.75;;;248.48;;
38613;SDS011;24369;49.480;8.488;2022-07-04T08:15:32;269.42;;;250.30;;
38613;SDS011;24369;49.480;8.488;2022-07-04T08:17:58;264.73;;;246.07;;
38613;SDS011;24369;49.480;8.488;2022-07-04T08:20:23;244.18;;;226.27;;
38613;SDS011;24369;49.480;8.488;2022-07-04T08:22:49;239.98;;;222.52;;
38613;SDS011;24369;49.480;8.488;2022-07-04T08:25:15;241.93;;;224.18;;
38613;SDS011;24369;49.480;8.488;2022-07-04T08:27:46;257.98;;;239.27;;
38613;SDS011;24369;49.480;8.488;2022-07-04T08:30:12;257.90;;;238.77;;
38613;SDS011;24369;49.480;8.488;2022-07-04T08:32:37;262.90;;;244.15;;
38613;SDS011;24369;49.480;8.488;2022-07-04T08:35:09;251.55;;;233.32;;
38613;SDS011;24369;49.480;8.488;2022-07-04T08:37:34;257.77;;;238.35;;
38613;SDS011;24369;49.480;8.488;2022-07-04T08:40:00;235.27;;;217.82;;
38613;SDS011;24369;49.480;8.488;2022-07-04T08:42:31;255.50;;;236.45;;
38613;SDS011;24369;49.480;8.488;2022-07-04T08:45:01;242.02;;;223.70;;
38613;SDS011;24369;49.480;8.488;2022-07-04T08:47:35;243.30;;;224.82;;
38613;SDS011;24369;49.480;8.488;2022-07-04T08:52:35;262.88;;;243.88;;
38613;SDS011;24369;49.480;8.488;2022-07-04T08:55:04;240.93;;;224.15;;
38613;SDS011;24369;49.480;8.488;2022-07-04T08:57:49;255.07;;;236.07;;
38613;SDS011;24369;49.480;8.488;2022-07-04T09:00:35;310.55;;;289.48;;
38613;SDS011;24369;49.480;8.488;2022-07-04T09:03:01;286.33;;;266.00;;
38613;SDS011;24369;49.480;8.488;2022-07-04T09:05:28;276.27;;;257.15;;
38613;SDS011;24369;49.480;8.488;2022-07-04T09:07:55;289.00;;;268.23;;
38613;SDS011;24369;49.480;8.488;2022-07-04T09:10:21;293.20;;;272.98;;
38613;SDS011;24369;49.480;8.488;2022-07-04T09:12:47;254.05;;;235.85;;
38613;SDS011;24369;49.480;8.488;2022-07-04T09:15:13;225.57;;;208.07;;
38613;SDS011;24369;49.480;8.488;2022-07-04T09:17:40;230.85;;;211.02;;
38613;SDS011;24369;49.480;8.488;2022-07-04T09:22:44;217.52;;;200.25;;
38613;SDS011;24369;49.480;8.488;2022-07-04T09:25:11;202.90;;;186.20;;
38613;SDS011;24369;49.480;8.488;2022-07-04T09:27:40;215.57;;;196.95;;
38613;SDS011;24369;49.480;8.488;2022-07-04T09:30:09;215.07;;;198.27;;
38613;SDS011;24369;49.480;8.488;2022-07-04T09:32:36;214.07;;;197.30;;
38613;SDS011;24369;49.480;8.488;2022-07-04T09:35:27;229.02;;;211.82;;
38613;SDS011;24369;49.480;8.488;2022-07-04T09:37:58;241.63;;;223.60;;
38613;SDS011;24369;49.480;8.488;2022-07-04T09:40:26;234.57;;;217.18;;
38613;SDS011;24369;49.480;8.488;2022-07-04T09:42:56;247.75;;;229.45;;
38613;SDS011;24369;49.480;8.488;2022-07-04T09:45:24;250.85;;;232.85;;
38613;SDS011;24369;49.480;8.488;2022-07-04T09:47:53;254.75;;;236.48;;
38613;SDS011;24369;49.480;8.488;2022-07-04T09:50:21;269.98;;;251.07;;
38613;SDS011;24369;49.480;8.488;2022-07-04T09:52:55;276.13;;;257.58;;
38613;SDS011;24369;49.480;8.488;2022-07-04T09:57:52;256.35;;;237.40;;
38613;SDS011;24369;49.480;8.488;2022-07-04T10:00:21;239.65;;;221.50;;
38613;SDS011;24369;49.480;8.488;2022-07-04T10:02:48;228.75;;;209.93;;
38613;SDS011;24369;49.480;8.488;2022-07-04T10:05:32;206.98;;;190.15;;
38613;SDS011;24369;49.480;8.488;2022-07-04T10:07:58;218.55;;;202.23;;
38613;SDS011;24369;49.480;8.488;2022-07-04T10:10:24;234.73;;;216.73;;
38613;SDS011;24369;49.480;8.488;2022-07-04T10:12:51;231.48;;;214.05;;
38613;SDS011;24369;49.480;8.488;2022-07-04T10:15:18;223.25;;;207.07;;
38613;SDS011;24369;49.480;8.488;2022-07-04T10:17:44;250.23;;;230.63;;
38613;SDS011;24369;49.480;8.488;2022-07-04T10:20:11;249.02;;;230.57;;
38613;SDS011;24369;49.480;8.488;2022-07-04T10:22:37;258.45;;;239.90;;
38613;SDS011;24369;49.480;8.488;2022-07-04T10:25:04;259.10;;;240.85;;
38613;SDS011;24369;49.480;8.488;2022-07-04T10:27:30;283.67;;;263.58;;
38613;SDS011;24369;49.480;8.488;2022-07-04T10:29:57;259.27;;;240.52;;
38613;SDS011;24369;49.480;8.488;2022-07-04T10:32:25;253.38;;;234.55;;
38613;SDS011;24369;49.480;8.488;2022-07-04T10:34:52;261.08;;;242.90;;
38613;SDS011;24369;49.480;8.488;2022-07-04T10:37:17;248.10;;;230.43;;
38613;SDS011;24369;49.480;8.488;2022-07-04T10:39:43;228.80;;;211.95;;
38613;SDS011;24369;49.480;8.488;2022-07-04T10:42:08;252.27;;;233.80;;
38613;SDS011;24369;49.480;8.488;2022-07-04T10:44:48;253.27;;;234.65;;
38613;SDS011;24369;49.480;8.488;2022-07-04T10:47:21;267.55;;;248.23;;
38613;SDS011;24369;49.480;8.488;2022-07-04T10:49:57;248.90;;;230.05;;
38613;SDS011;24369;49.480;8.488;2022-07-04T10:52:23;255.85;;;236.82;;
38613;SDS011;24369;49.480;8.488;2022-07-04T10:54:49;258.52;;;240.05;;
38613;SDS011;24369;49.480;8.488;2022-07-04T10:57:18;253.40;;;233.98;;
38613;SDS011;24369;49.480;8.488;2022-07-04T11:04:52;249.48;;;231.88;;
38613;SDS011;24369;49.480;8.488;2022-07-04T11:08:06;251.20;;;233.35;;
38613;SDS011;24369;49.480;8.488;2022-07-04T11:18:02;256.33;;;236.05;;
38613;SDS011;24369;49.480;8.488;2022-07-04T11:20:41;249.80;;;231.90;;
38613;SDS011;24369;49.480;8.488;2022-07-04T11:23:13;238.20;;;221.43;;
38613;SDS011;24369;49.480;8.488;2022-07-04T11:25:41;242.25;;;223.27;;
38613;SDS011;24369;49.480;8.488;2022-07-04T11:28:23;249.70;;;231.82;;
38613;SDS011;24369;49.480;8.488;2022-07-04T11:30:54;242.18;;;224.77;;
38613;SDS011;24369;49.480;8.488;2022-07-04T11:33:22;257.52;;;238.73;;
38613;SDS011;24369;49.480;8.488;2022-07-04T11:36:17;241.45;;;224.52;;
38613;SDS011;24369;49.480;8.488;2022-07-04T11:41:14;241.05;;;223.07;;
38613;SDS011;24369;49.480;8.488;2022-07-04T11:43:59;249.30;;;231.80;;
38613;SDS011;24369;49.480;8.488;2022-07-04T11:46:46;255.90;;;237.45;;
38613;SDS011;24369;49.480;8.488;2022-07-04T11:49:11;238.30;;;220.55;;
38613;SDS011;24369;49.480;8.488;2022-07-04T11:51:44;253.90;;;236.23;;
38613;SDS011;24369;49.480;8.488;2022-07-04T11:54:12;242.23;;;224.80;;
38613;SDS011;24369;49.480;8.488;2022-07-04T11:56:37;245.48;;;228.13;;
38613;SDS011;24369;49.480;8.488;2022-07-04T11:59:10;236.23;;;219.10;;
38613;SDS011;24369;49.480;8.488;2022-07-04T12:01:37;236.20;;;219.00;;
38613;SDS011;24369;49.480;8.488;2022-07-04T12:04:12;244.35;;;226.93;;
38613;SDS011;24369;49.480;8.488;2022-07-04T12:06:42;243.95;;;226.02;;
38613;SDS011;24369;49.480;8.488;2022-07-04T12:09:08;255.45;;;237.18;;
38613;SDS011;24369;49.480;8.488;2022-07-04T12:11:49;249.52;;;231.23;;
38613;SDS011;24369;49.480;8.488;2022-07-04T12:14:25;246.57;;;229.05;;
38613;SDS011;24369;49.480;8.488;2022-07-04T12:19:56;239.65;;;221.93;;
38613;SDS011;24369;49.480;8.488;2022-07-04T12:22:27;237.00;;;219.07;;
38613;SDS011;24369;49.480;8.488;2022-07-04T12:25:04;248.48;;;231.07;;
38613;SDS011;24369;49.480;8.488;2022-07-04T12:27:31;252.25;;;234.43;;
38613;SDS011;24369;49.480;8.488;2022-07-04T12:29:57;246.07;;;229.23;;
38613;SDS011;24369;49.480;8.488;2022-07-04T12:32:24;251.07;;;232.93;;
38613;SDS011;24369;49.480;8.488;2022-07-04T12:35:08;242.23;;;224.45;;
38613;SDS011;24369;49.480;8.488;2022-07-04T12:37:33;246.57;;;228.18;;
38613;SDS011;24369;49.480;8.488;2022-07-04T12:40:06;259.40;;;241.18;;
38613;SDS011;24369;49.480;8.488;2022-07-04T12:42:32;241.50;;;223.85;;
38613;SDS011;24369;49.480;8.488;2022-07-04T12:45:04;245.60;;;227.68;;
38613;SDS011;24369;49.480;8.488;2022-07-04T12:47:30;243.18;;;225.02;;
38613;SDS011;24369;49.480;8.488;2022-07-04T12:49:56;245.20;;;226.73;;
38613;SDS011;24369;49.480;8.488;2022-07-04T12:52:22;237.05;;;219.43;;
38613;SDS011;24369;49.480;8.488;2022-07-04T12:55:05;241.70;;;223.18;;
38613;SDS011;24369;49.480;8.488;2022-07-04T12:57:35;231.80;;;213.77;;
38613;SDS011;24369;49.480;8.488;2022-07-04T13:00:00;252.52;;;233.98;;
38613;SDS011;24369;49.480;8.488;2022-07-04T13:02:26;238.30;;;220.98;;
38613;SDS011;24369;49.480;8.488;2022-07-04T13:04:51;246.43;;;228.75;;
38613;SDS011;24369;49.480;8.488;2022-07-04T13:07:17;251.95;;;233.63;;
38613;SDS011;24369;49.480;8.488;2022-07-04T13:09:44;231.07;;;213.20;;
38613;SDS011;24369;49.480;8.488;2022-07-04T13:12:11;232.40;;;215.15;;
38613;SDS011;24369;49.480;8.488;2022-07-04T13:14:50;249.82;;;231.23;;
38613;SDS011;24369;49.480;8.488;2022-07-04T13:17:16;254.40;;;236.18;;
38613;SDS011;24369;49.480;8.488;2022-07-04T13:19:42;232.90;;;216.20;;
38613;SDS011;24369;49.480;8.488;2022-07-04T13:22:07;240.55;;;222.93;;
38613;SDS011;24369;49.480;8.488;2022-07-04T13:24:33;240.82;;;223.38;;
38613;SDS011;24369;49.480;8.488;2022-07-04T13:26:58;266.75;;;246.90;;
38613;SDS011;24369;49.480;8.488;2022-07-04T13:29:23;234.43;;;216.85;;
38613;SDS011;24369;49.480;8.488;2022-07-04T13:31:49;242.80;;;224.52;;
38613;SDS011;24369;49.480;8.488;2022-07-04T13:34:14;248.45;;;229.65;;
38613;SDS011;24369;49.480;8.488;2022-07-04T13:36:40;223.73;;;206.68;;
38613;SDS011;24369;49.480;8.488;2022-07-04T13:39:06;232.25;;;214.35;;
38613;SDS011;24369;49.480;8.488;2022-07-04T13:41:34;239.73;;;221.27;;
38613;SDS011;24369;49.480;8.488;2022-07-04T13:44:03;222.82;;;205.02;;
38613;SDS011;24369;49.480;8.488;2022-07-04T13:46:29;215.50;;;198.63;;
38613;SDS011;24369;49.480;8.488;2022-07-04T13:48:59;218.82;;;201.88;;
38613;SDS011;24369;49.480;8.488;2022-07-04T13:51:25;211.18;;;193.82;;
38613;SDS011;24369;49.480;8.488;2022-07-04T13:53:51;235.88;;;217.82;;
38613;SDS011;24369;49.480;8.488;2022-07-04T13:56:16;217.13;;;201.02;;
38613;SDS011;24369;49.480;8.488;2022-07-04T13:58:43;218.05;;;201.45;;
38613;SDS011;24369;49.480;8.488;2022-07-04T14:01:10;229.38;;;212.68;;
38613;SDS011;24369;49.480;8.488;2022-07-04T14:03:35;210.32;;;193.35;;
38613;SDS011;24369;49.480;8.488;2022-07-04T14:06:01;214.13;;;196.75;;
38613;SDS011;24369;49.480;8.488;2022-07-04T14:08:26;214.85;;;196.80;;
38613;SDS011;24369;49.480;8.488;2022-07-04T14:10:51;207.70;;;190.63;;
38613;SDS011;24369;49.480;8.488;2022-07-04T14:13:17;202.93;;;186.15;;
38613;SDS011;24369;49.480;8.488;2022-07-04T14:15:42;209.18;;;192.57;;
38613;SDS011;24369;49.480;8.488;2022-07-04T14:18:08;208.65;;;191.90;;
38613;SDS011;24369;49.480;8.488;2022-07-04T14:20:38;212.93;;;196.48;;
38613;SDS011;24369;49.480;8.488;2022-07-04T14:23:04;216.88;;;199.85;;
38613;SDS011;24369;49.480;8.488;2022-07-04T14:25:30;207.10;;;190.48;;
38613;SDS011;24369;49.480;8.488;2022-07-04T14:27:55;228.50;;;210.43;;
38613;SDS011;24369;49.480;8.488;2022-07-04T14:30:20;213.43;;;196.82;;